sensor_id;sensor_type;location;lat;lon;timestamp;P1;durP1;ratioP1;P2;durP2;ratioP2
25207;SDS011;13153;52.316;21.166;2022-11-18T00:00:53;31.42;;;18.38;;
25207;SDS011;13153;52.316;21.166;2022-11-18T00:03:19;33.60;;;19.15;;
25207;SDS011;13153;52.316;21.166;2022-11-18T00:05:55;30.85;;;17.90;;
25207;SDS011;13153;52.316;21.166;2022-11-18T00:08:22;34.53;;;18.08;;
25207;SDS011;13153;52.316;21.166;2022-11-18T00:10:50;30.08;;;18.60;;
25207;SDS011;13153;52.316;21.166;2022-11-18T00:13:15;33.88;;;19.30;;
25207;SDS011;13153;52.316;21.166;2022-11-18T00:16:01;31.05;;;19.05;;
25207;SDS011;13153;52.316;21.166;2022-11-18T00:18:32;30.40;;;19.30;;
25207;SDS011;13153;52.316;21.166;2022-11-18T00:21:02;30.90;;;19.08;;
25207;SDS011;13153;52.316;21.166;2022-11-18T00:23:31;29.38;;;18.48;;
25207;SDS011;13153;52.316;21.166;2022-11-18T00:26:15;33.78;;;19.67;;
25207;SDS011;13153;52.316;21.166;2022-11-18T00:28:40;29.98;;;18.70;;
25207;SDS011;13153;52.316;21.166;2022-11-18T00:31:07;34.40;;;19.58;;
25207;SDS011;13153;52.316;21.166;2022-11-18T00:33:37;31.60;;;18.30;;
25207;SDS011;13153;52.316;21.166;2022-11-18T00:36:03;32.25;;;18.90;;
25207;SDS011;13153;52.316;21.166;2022-11-18T00:38:31;32.28;;;18.70;;
25207;SDS011;13153;52.316;21.166;2022-11-18T00:41:01;31.33;;;18.40;;
25207;SDS011;13153;52.316;21.166;2022-11-18T00:43:39;29.17;;;17.67;;
25207;SDS011;13153;52.316;21.166;2022-11-18T00:46:07;30.20;;;18.10;;
25207;SDS011;13153;52.316;21.166;2022-11-18T00:48:35;29.23;;;17.65;;
25207;SDS011;13153;52.316;21.166;2022-11-18T00:51:06;28.73;;;17.45;;
25207;SDS011;13153;52.316;21.166;2022-11-18T00:53:41;28.75;;;17.92;;
25207;SDS011;13153;52.316;21.166;2022-11-18T00:56:07;29.27;;;18.25;;
25207;SDS011;13153;52.316;21.166;2022-11-18T00:58:34;29.05;;;17.98;;
25207;SDS011;13153;52.316;21.166;2022-11-18T01:01:01;30.77;;;18.00;;
25207;SDS011;13153;52.316;21.166;2022-11-18T01:03:28;30.40;;;18.75;;
25207;SDS011;13153;52.316;21.166;2022-11-18T01:05:54;31.17;;;18.30;;
25207;SDS011;13153;52.316;21.166;2022-11-18T01:08:20;34.83;;;19.77;;
25207;SDS011;13153;52.316;21.166;2022-11-18T01:10:47;32.20;;;19.60;;
25207;SDS011;13153;52.316;21.166;2022-11-18T01:13:16;34.58;;;19.30;;
25207;SDS011;13153;52.316;21.166;2022-11-18T01:15:54;35.10;;;20.40;;
25207;SDS011;13153;52.316;21.166;2022-11-18T01:18:26;36.50;;;20.90;;
25207;SDS011;13153;52.316;21.166;2022-11-18T01:20:59;34.45;;;19.38;;
25207;SDS011;13153;52.316;21.166;2022-11-18T01:23:26;31.70;;;19.90;;
25207;SDS011;13153;52.316;21.166;2022-11-18T01:25:52;33.08;;;19.90;;
25207;SDS011;13153;52.316;21.166;2022-11-18T01:28:17;31.92;;;19.50;;
25207;SDS011;13153;52.316;21.166;2022-11-18T01:30:44;29.17;;;17.67;;
25207;SDS011;13153;52.316;21.166;2022-11-18T01:33:10;28.67;;;17.75;;
25207;SDS011;13153;52.316;21.166;2022-11-18T01:35:37;31.40;;;18.85;;
25207;SDS011;13153;52.316;21.166;2022-11-18T01:38:06;31.58;;;18.27;;
25207;SDS011;13153;52.316;21.166;2022-11-18T01:40:34;29.35;;;17.30;;
25207;SDS011;13153;52.316;21.166;2022-11-18T01:43:01;29.77;;;17.58;;
25207;SDS011;13153;52.316;21.166;2022-11-18T01:45:38;30.40;;;17.15;;
25207;SDS011;13153;52.316;21.166;2022-11-18T01:48:07;27.50;;;15.95;;
25207;SDS011;13153;52.316;21.166;2022-11-18T01:50:56;24.58;;;15.40;;
25207;SDS011;13153;52.316;21.166;2022-11-18T01:53:30;30.45;;;15.98;;
25207;SDS011;13153;52.316;21.166;2022-11-18T01:56:03;25.25;;;15.73;;
25207;SDS011;13153;52.316;21.166;2022-11-18T01:59:02;24.92;;;15.77;;
25207;SDS011;13153;52.316;21.166;2022-11-18T02:01:38;24.98;;;15.95;;
25207;SDS011;13153;52.316;21.166;2022-11-18T02:04:05;33.80;;;16.05;;
25207;SDS011;13153;52.316;21.166;2022-11-18T02:06:33;25.77;;;15.68;;
25207;SDS011;13153;52.316;21.166;2022-11-18T02:09:00;26.30;;;16.02;;
25207;SDS011;13153;52.316;21.166;2022-11-18T02:11:27;27.83;;;16.27;;
25207;SDS011;13153;52.316;21.166;2022-11-18T02:14:12;31.02;;;16.98;;
25207;SDS011;13153;52.316;21.166;2022-11-18T02:22:20;23.80;;;14.75;;
25207;SDS011;13153;52.316;21.166;2022-11-18T02:25:11;26.48;;;16.30;;
25207;SDS011;13153;52.316;21.166;2022-11-18T02:30:59;24.30;;;15.07;;
25207;SDS011;13153;52.316;21.166;2022-11-18T02:33:38;24.52;;;15.90;;
25207;SDS011;13153;52.316;21.166;2022-11-18T02:36:20;29.63;;;17.02;;
25207;SDS011;13153;52.316;21.166;2022-11-18T02:38:56;28.52;;;17.50;;
25207;SDS011;13153;52.316;21.166;2022-11-18T02:41:29;33.80;;;19.30;;
25207;SDS011;13153;52.316;21.166;2022-11-18T02:44:01;35.92;;;20.67;;
25207;SDS011;13153;52.316;21.166;2022-11-18T02:46:39;35.95;;;20.33;;
25207;SDS011;13153;52.316;21.166;2022-11-18T02:49:12;37.67;;;21.42;;
25207;SDS011;13153;52.316;21.166;2022-11-18T02:51:49;38.38;;;22.17;;
25207;SDS011;13153;52.316;21.166;2022-11-18T02:54:18;42.63;;;22.92;;
25207;SDS011;13153;52.316;21.166;2022-11-18T02:56:48;43.13;;;23.85;;
25207;SDS011;13153;52.316;21.166;2022-11-18T02:59:17;46.97;;;25.20;;
25207;SDS011;13153;52.316;21.166;2022-11-18T03:01:43;43.05;;;24.25;;
25207;SDS011;13153;52.316;21.166;2022-11-18T03:04:10;42.92;;;25.42;;
25207;SDS011;13153;52.316;21.166;2022-11-18T03:06:39;43.78;;;25.50;;
25207;SDS011;13153;52.316;21.166;2022-11-18T03:09:35;40.42;;;23.95;;
25207;SDS011;13153;52.316;21.166;2022-11-18T03:20:28;38.58;;;23.02;;
25207;SDS011;13153;52.316;21.166;2022-11-18T03:25:54;41.10;;;23.73;;
25207;SDS011;13153;52.316;21.166;2022-11-18T03:33:37;40.33;;;24.25;;
25207;SDS011;13153;52.316;21.166;2022-11-18T03:36:11;44.47;;;25.20;;
25207;SDS011;13153;52.316;21.166;2022-11-18T03:38:46;43.55;;;25.15;;
25207;SDS011;13153;52.316;21.166;2022-11-18T03:41:16;41.50;;;24.55;;
25207;SDS011;13153;52.316;21.166;2022-11-18T03:43:47;42.67;;;24.67;;
25207;SDS011;13153;52.316;21.166;2022-11-18T03:46:26;40.15;;;23.38;;
25207;SDS011;13153;52.316;21.166;2022-11-18T03:49:02;41.95;;;21.90;;
25207;SDS011;13153;52.316;21.166;2022-11-18T03:51:35;37.15;;;21.02;;
25207;SDS011;13153;52.316;21.166;2022-11-18T03:54:14;37.55;;;21.60;;
25207;SDS011;13153;52.316;21.166;2022-11-18T03:56:48;36.00;;;20.67;;
25207;SDS011;13153;52.316;21.166;2022-11-18T03:59:31;35.17;;;20.63;;
25207;SDS011;13153;52.316;21.166;2022-11-18T04:02:05;35.28;;;20.27;;
25207;SDS011;13153;52.316;21.166;2022-11-18T04:04:45;34.65;;;20.08;;
25207;SDS011;13153;52.316;21.166;2022-11-18T04:10:03;36.92;;;19.73;;
25207;SDS011;13153;52.316;21.166;2022-11-18T04:12:47;32.47;;;19.55;;
25207;SDS011;13153;52.316;21.166;2022-11-18T04:15:36;34.05;;;19.35;;
25207;SDS011;13153;52.316;21.166;2022-11-18T04:18:05;31.50;;;18.65;;
25207;SDS011;13153;52.316;21.166;2022-11-18T04:20:32;33.35;;;19.13;;
25207;SDS011;13153;52.316;21.166;2022-11-18T04:22:58;33.63;;;19.15;;
25207;SDS011;13153;52.316;21.166;2022-11-18T04:25:25;32.00;;;18.52;;
25207;SDS011;13153;52.316;21.166;2022-11-18T04:27:51;31.58;;;18.13;;
25207;SDS011;13153;52.316;21.166;2022-11-18T04:30:17;34.85;;;18.63;;
25207;SDS011;13153;52.316;21.166;2022-11-18T04:32:44;32.08;;;18.10;;
25207;SDS011;13153;52.316;21.166;2022-11-18T04:35:10;33.92;;;18.88;;
25207;SDS011;13153;52.316;21.166;2022-11-18T04:37:35;34.05;;;19.58;;
25207;SDS011;13153;52.316;21.166;2022-11-18T04:40:02;32.35;;;19.05;;
25207;SDS011;13153;52.316;21.166;2022-11-18T04:42:29;32.00;;;18.88;;
25207;SDS011;13153;52.316;21.166;2022-11-18T04:44:55;37.17;;;19.33;;
25207;SDS011;13153;52.316;21.166;2022-11-18T04:47:20;28.35;;;17.83;;
25207;SDS011;13153;52.316;21.166;2022-11-18T04:49:46;30.95;;;17.48;;
25207;SDS011;13153;52.316;21.166;2022-11-18T04:52:12;31.63;;;17.02;;
25207;SDS011;13153;52.316;21.166;2022-11-18T04:54:38;29.10;;;15.45;;
25207;SDS011;13153;52.316;21.166;2022-11-18T04:57:04;26.83;;;15.75;;
25207;SDS011;13153;52.316;21.166;2022-11-18T04:59:31;28.92;;;15.88;;
25207;SDS011;13153;52.316;21.166;2022-11-18T05:01:57;26.17;;;15.60;;
25207;SDS011;13153;52.316;21.166;2022-11-18T05:04:25;27.35;;;16.60;;
25207;SDS011;13153;52.316;21.166;2022-11-18T05:06:55;21.63;;;13.68;;
25207;SDS011;13153;52.316;21.166;2022-11-18T05:09:22;23.38;;;14.43;;
25207;SDS011;13153;52.316;21.166;2022-11-18T05:11:48;25.27;;;14.13;;
25207;SDS011;13153;52.316;21.166;2022-11-18T05:14:32;24.55;;;14.00;;
25207;SDS011;13153;52.316;21.166;2022-11-18T05:16:59;24.75;;;14.30;;
25207;SDS011;13153;52.316;21.166;2022-11-18T05:19:27;31.40;;;15.48;;
25207;SDS011;13153;52.316;21.166;2022-11-18T05:21:53;26.00;;;14.20;;
25207;SDS011;13153;52.316;21.166;2022-11-18T05:24:19;24.05;;;12.98;;
25207;SDS011;13153;52.316;21.166;2022-11-18T05:26:47;21.80;;;12.85;;
25207;SDS011;13153;52.316;21.166;2022-11-18T05:29:16;19.48;;;11.80;;
25207;SDS011;13153;52.316;21.166;2022-11-18T05:31:43;18.40;;;10.48;;
25207;SDS011;13153;52.316;21.166;2022-11-18T05:34:10;16.17;;;10.38;;
25207;SDS011;13153;52.316;21.166;2022-11-18T05:36:37;21.98;;;10.85;;
25207;SDS011;13153;52.316;21.166;2022-11-18T05:39:02;18.27;;;11.27;;
25207;SDS011;13153;52.316;21.166;2022-11-18T05:41:29;17.80;;;10.50;;
25207;SDS011;13153;52.316;21.166;2022-11-18T05:44:13;16.67;;;9.85;;
25207;SDS011;13153;52.316;21.166;2022-11-18T05:46:39;17.35;;;10.10;;
25207;SDS011;13153;52.316;21.166;2022-11-18T05:49:05;19.70;;;10.50;;
25207;SDS011;13153;52.316;21.166;2022-11-18T05:51:31;17.85;;;10.15;;
25207;SDS011;13153;52.316;21.166;2022-11-18T05:53:58;20.73;;;10.20;;
25207;SDS011;13153;52.316;21.166;2022-11-18T05:56:37;16.52;;;9.82;;
25207;SDS011;13153;52.316;21.166;2022-11-18T05:59:08;16.90;;;10.10;;
25207;SDS011;13153;52.316;21.166;2022-11-18T06:01:39;15.27;;;9.60;;
25207;SDS011;13153;52.316;21.166;2022-11-18T06:04:23;17.35;;;10.13;;
25207;SDS011;13153;52.316;21.166;2022-11-18T06:06:59;16.88;;;10.18;;
25207;SDS011;13153;52.316;21.166;2022-11-18T06:09:37;19.17;;;10.13;;
25207;SDS011;13153;52.316;21.166;2022-11-18T06:12:07;18.63;;;10.63;;
25207;SDS011;13153;52.316;21.166;2022-11-18T06:14:45;19.02;;;11.75;;
25207;SDS011;13153;52.316;21.166;2022-11-18T06:17:24;18.08;;;10.55;;
25207;SDS011;13153;52.316;21.166;2022-11-18T06:19:59;17.38;;;10.77;;
25207;SDS011;13153;52.316;21.166;2022-11-18T06:22:26;19.20;;;10.55;;
25207;SDS011;13153;52.316;21.166;2022-11-18T06:24:52;16.52;;;10.63;;
25207;SDS011;13153;52.316;21.166;2022-11-18T06:27:18;17.20;;;10.18;;
25207;SDS011;13153;52.316;21.166;2022-11-18T06:29:45;17.85;;;10.40;;
25207;SDS011;13153;52.316;21.166;2022-11-18T06:32:10;19.10;;;10.68;;
25207;SDS011;13153;52.316;21.166;2022-11-18T06:34:36;17.55;;;10.27;;
25207;SDS011;13153;52.316;21.166;2022-11-18T06:37:15;19.25;;;10.68;;
25207;SDS011;13153;52.316;21.166;2022-11-18T06:39:44;18.60;;;10.75;;
25207;SDS011;13153;52.316;21.166;2022-11-18T06:42:11;19.55;;;10.50;;
25207;SDS011;13153;52.316;21.166;2022-11-18T06:44:56;20.67;;;11.45;;
25207;SDS011;13153;52.316;21.166;2022-11-18T06:47:22;22.00;;;11.05;;
25207;SDS011;13153;52.316;21.166;2022-11-18T06:49:48;20.88;;;11.10;;
25207;SDS011;13153;52.316;21.166;2022-11-18T06:52:14;18.20;;;10.35;;
25207;SDS011;13153;52.316;21.166;2022-11-18T06:54:39;20.65;;;11.07;;
25207;SDS011;13153;52.316;21.166;2022-11-18T06:57:05;16.48;;;9.95;;
25207;SDS011;13153;52.316;21.166;2022-11-18T06:59:31;22.00;;;11.55;;
25207;SDS011;13153;52.316;21.166;2022-11-18T07:01:56;25.92;;;11.75;;
25207;SDS011;13153;52.316;21.166;2022-11-18T07:04:22;17.77;;;10.45;;
25207;SDS011;13153;52.316;21.166;2022-11-18T07:06:48;19.75;;;10.10;;
25207;SDS011;13153;52.316;21.166;2022-11-18T07:09:13;17.42;;;11.02;;
25207;SDS011;13153;52.316;21.166;2022-11-18T07:11:39;20.08;;;11.23;;
25207;SDS011;13153;52.316;21.166;2022-11-18T07:14:06;20.65;;;11.23;;
25207;SDS011;13153;52.316;21.166;2022-11-18T07:16:33;18.38;;;11.02;;
25207;SDS011;13153;52.316;21.166;2022-11-18T07:19:00;18.70;;;11.65;;
25207;SDS011;13153;52.316;21.166;2022-11-18T07:21:32;15.48;;;10.00;;
25207;SDS011;13153;52.316;21.166;2022-11-18T07:23:58;15.60;;;9.52;;
25207;SDS011;13153;52.316;21.166;2022-11-18T07:26:24;13.20;;;8.70;;
25207;SDS011;13153;52.316;21.166;2022-11-18T07:28:49;15.90;;;9.55;;
25207;SDS011;13153;52.316;21.166;2022-11-18T07:31:16;18.08;;;9.85;;
25207;SDS011;13153;52.316;21.166;2022-11-18T07:33:44;16.95;;;9.43;;
25207;SDS011;13153;52.316;21.166;2022-11-18T07:36:12;13.82;;;9.23;;
25207;SDS011;13153;52.316;21.166;2022-11-18T07:38:43;14.32;;;9.07;;
25207;SDS011;13153;52.316;21.166;2022-11-18T07:41:11;17.60;;;9.80;;
25207;SDS011;13153;52.316;21.166;2022-11-18T07:43:46;12.70;;;7.72;;
25207;SDS011;13153;52.316;21.166;2022-11-18T07:46:15;13.38;;;8.13;;
25207;SDS011;13153;52.316;21.166;2022-11-18T07:48:48;15.20;;;7.88;;
25207;SDS011;13153;52.316;21.166;2022-11-18T07:51:17;13.02;;;8.48;;
25207;SDS011;13153;52.316;21.166;2022-11-18T07:53:46;13.90;;;8.43;;
25207;SDS011;13153;52.316;21.166;2022-11-18T07:56:13;14.55;;;8.30;;
25207;SDS011;13153;52.316;21.166;2022-11-18T07:58:40;11.38;;;7.53;;
25207;SDS011;13153;52.316;21.166;2022-11-18T08:03:44;13.48;;;7.97;;
25207;SDS011;13153;52.316;21.166;2022-11-18T08:06:12;12.35;;;7.95;;
25207;SDS011;13153;52.316;21.166;2022-11-18T08:08:40;12.75;;;7.35;;
25207;SDS011;13153;52.316;21.166;2022-11-18T08:11:08;13.82;;;6.90;;
25207;SDS011;13153;52.316;21.166;2022-11-18T08:13:37;12.10;;;6.75;;
25207;SDS011;13153;52.316;21.166;2022-11-18T08:16:03;13.68;;;6.70;;
25207;SDS011;13153;52.316;21.166;2022-11-18T08:18:37;9.85;;;6.60;;
25207;SDS011;13153;52.316;21.166;2022-11-18T08:21:03;11.48;;;6.97;;
25207;SDS011;13153;52.316;21.166;2022-11-18T08:23:30;9.52;;;6.00;;
25207;SDS011;13153;52.316;21.166;2022-11-18T08:26:06;9.23;;;6.10;;
25207;SDS011;13153;52.316;21.166;2022-11-18T08:28:38;10.50;;;6.55;;
25207;SDS011;13153;52.316;21.166;2022-11-18T08:31:10;15.80;;;7.65;;
25207;SDS011;13153;52.316;21.166;2022-11-18T08:33:38;15.07;;;7.95;;
25207;SDS011;13153;52.316;21.166;2022-11-18T08:36:05;11.88;;;6.80;;
25207;SDS011;13153;52.316;21.166;2022-11-18T08:38:32;10.48;;;6.60;;
25207;SDS011;13153;52.316;21.166;2022-11-18T08:40:58;10.15;;;6.32;;
25207;SDS011;13153;52.316;21.166;2022-11-18T08:43:23;9.90;;;6.30;;
25207;SDS011;13153;52.316;21.166;2022-11-18T08:45:49;10.55;;;6.65;;
25207;SDS011;13153;52.316;21.166;2022-11-18T08:48:15;8.30;;;5.85;;
25207;SDS011;13153;52.316;21.166;2022-11-18T08:50:40;8.43;;;5.80;;
25207;SDS011;13153;52.316;21.166;2022-11-18T08:53:06;10.18;;;5.85;;
25207;SDS011;13153;52.316;21.166;2022-11-18T08:55:31;10.63;;;6.40;;
25207;SDS011;13153;52.316;21.166;2022-11-18T08:57:57;10.88;;;6.45;;
25207;SDS011;13153;52.316;21.166;2022-11-18T09:00:23;16.42;;;6.32;;
25207;SDS011;13153;52.316;21.166;2022-11-18T09:02:49;10.07;;;6.53;;
25207;SDS011;13153;52.316;21.166;2022-11-18T09:05:14;12.30;;;6.70;;
25207;SDS011;13153;52.316;21.166;2022-11-18T09:07:40;12.32;;;7.25;;
25207;SDS011;13153;52.316;21.166;2022-11-18T09:10:06;10.55;;;6.82;;
25207;SDS011;13153;52.316;21.166;2022-11-18T09:12:32;10.07;;;6.72;;
25207;SDS011;13153;52.316;21.166;2022-11-18T09:14:58;11.30;;;6.85;;
25207;SDS011;13153;52.316;21.166;2022-11-18T09:17:23;13.43;;;6.80;;
25207;SDS011;13153;52.316;21.166;2022-11-18T09:19:49;11.50;;;7.05;;
25207;SDS011;13153;52.316;21.166;2022-11-18T09:22:15;11.23;;;7.22;;
25207;SDS011;13153;52.316;21.166;2022-11-18T09:24:40;11.88;;;7.28;;
25207;SDS011;13153;52.316;21.166;2022-11-18T09:27:07;11.80;;;7.38;;
25207;SDS011;13153;52.316;21.166;2022-11-18T09:29:33;11.73;;;7.35;;
25207;SDS011;13153;52.316;21.166;2022-11-18T09:31:58;8.32;;;6.05;;
25207;SDS011;13153;52.316;21.166;2022-11-18T09:34:26;10.52;;;6.65;;
25207;SDS011;13153;52.316;21.166;2022-11-18T09:36:52;9.57;;;6.70;;
25207;SDS011;13153;52.316;21.166;2022-11-18T09:39:21;11.40;;;6.75;;
25207;SDS011;13153;52.316;21.166;2022-11-18T09:42:00;11.05;;;6.65;;
25207;SDS011;13153;52.316;21.166;2022-11-18T09:44:59;10.05;;;6.88;;
25207;SDS011;13153;52.316;21.166;2022-11-18T09:47:36;10.73;;;6.80;;
25207;SDS011;13153;52.316;21.166;2022-11-18T09:50:06;11.13;;;6.82;;
25207;SDS011;13153;52.316;21.166;2022-11-18T09:52:59;10.35;;;6.68;;
25207;SDS011;13153;52.316;21.166;2022-11-18T09:55:30;11.18;;;6.70;;
25207;SDS011;13153;52.316;21.166;2022-11-18T09:58:02;11.05;;;6.43;;
25207;SDS011;13153;52.316;21.166;2022-11-18T10:00:29;10.48;;;6.82;;
25207;SDS011;13153;52.316;21.166;2022-11-18T10:02:57;11.63;;;6.55;;
25207;SDS011;13153;52.316;21.166;2022-11-18T10:05:43;10.70;;;6.55;;
25207;SDS011;13153;52.316;21.166;2022-11-18T10:08:38;11.35;;;6.78;;
25207;SDS011;13153;52.316;21.166;2022-11-18T10:11:45;9.15;;;5.93;;
25207;SDS011;13153;52.316;21.166;2022-11-18T10:14:56;8.85;;;5.93;;
25207;SDS011;13153;52.316;21.166;2022-11-18T10:18:05;11.02;;;6.93;;
25207;SDS011;13153;52.316;21.166;2022-11-18T10:20:57;12.30;;;7.38;;
25207;SDS011;13153;52.316;21.166;2022-11-18T10:23:58;13.85;;;6.85;;
25207;SDS011;13153;52.316;21.166;2022-11-18T10:26:49;10.65;;;6.07;;
25207;SDS011;13153;52.316;21.166;2022-11-18T10:29:21;10.05;;;6.72;;
25207;SDS011;13153;52.316;21.166;2022-11-18T10:34:32;10.75;;;6.97;;
25207;SDS011;13153;52.316;21.166;2022-11-18T10:37:20;9.07;;;6.07;;
25207;SDS011;13153;52.316;21.166;2022-11-18T10:39:54;9.30;;;5.70;;
25207;SDS011;13153;52.316;21.166;2022-11-18T10:42:27;11.63;;;7.10;;
25207;SDS011;13153;52.316;21.166;2022-11-18T10:50:41;11.23;;;6.95;;
25207;SDS011;13153;52.316;21.166;2022-11-18T10:55:59;12.75;;;7.63;;
25207;SDS011;13153;52.316;21.166;2022-11-18T10:58:30;14.90;;;8.50;;
25207;SDS011;13153;52.316;21.166;2022-11-18T11:01:05;14.45;;;8.18;;
25207;SDS011;13153;52.316;21.166;2022-11-18T11:04:01;15.77;;;8.85;;
25207;SDS011;13153;52.316;21.166;2022-11-18T11:06:39;11.77;;;6.85;;
25207;SDS011;13153;52.316;21.166;2022-11-18T11:11:38;10.70;;;6.25;;
25207;SDS011;13153;52.316;21.166;2022-11-18T11:14:31;10.18;;;5.97;;
25207;SDS011;13153;52.316;21.166;2022-11-18T11:17:16;11.00;;;6.30;;
25207;SDS011;13153;52.316;21.166;2022-11-18T11:20:19;10.93;;;6.45;;
25207;SDS011;13153;52.316;21.166;2022-11-18T11:22:48;11.02;;;5.88;;
25207;SDS011;13153;52.316;21.166;2022-11-18T11:25:17;10.35;;;6.00;;
25207;SDS011;13153;52.316;21.166;2022-11-18T11:31:35;9.80;;;5.68;;
25207;SDS011;13153;52.316;21.166;2022-11-18T11:34:25;14.02;;;6.65;;
25207;SDS011;13153;52.316;21.166;2022-11-18T11:37:41;16.80;;;6.72;;
25207;SDS011;13153;52.316;21.166;2022-11-18T11:40:24;11.80;;;6.93;;
25207;SDS011;13153;52.316;21.166;2022-11-18T11:46:26;12.63;;;6.10;;
25207;SDS011;13153;52.316;21.166;2022-11-18T11:52:04;11.35;;;5.93;;
25207;SDS011;13153;52.316;21.166;2022-11-18T11:58:12;14.05;;;6.47;;
25207;SDS011;13153;52.316;21.166;2022-11-18T12:01:04;10.10;;;6.50;;
25207;SDS011;13153;52.316;21.166;2022-11-18T12:03:45;14.23;;;5.80;;
25207;SDS011;13153;52.316;21.166;2022-11-18T12:06:23;9.18;;;5.78;;
25207;SDS011;13153;52.316;21.166;2022-11-18T12:18:23;12.43;;;6.32;;
25207;SDS011;13153;52.316;21.166;2022-11-18T12:20:59;12.75;;;6.45;;
25207;SDS011;13153;52.316;21.166;2022-11-18T12:23:26;13.02;;;6.40;;
25207;SDS011;13153;52.316;21.166;2022-11-18T12:28:42;13.15;;;6.88;;
25207;SDS011;13153;52.316;21.166;2022-11-18T12:36:24;9.32;;;5.82;;
25207;SDS011;13153;52.316;21.166;2022-11-18T12:42:00;10.15;;;6.18;;
25207;SDS011;13153;52.316;21.166;2022-11-18T12:44:48;12.38;;;5.95;;
25207;SDS011;13153;52.316;21.166;2022-11-18T12:55:02;11.52;;;5.97;;
25207;SDS011;13153;52.316;21.166;2022-11-18T12:57:39;10.02;;;6.05;;
25207;SDS011;13153;52.316;21.166;2022-11-18T13:00:16;9.35;;;5.88;;
25207;SDS011;13153;52.316;21.166;2022-11-18T13:02:51;12.98;;;6.55;;
25207;SDS011;13153;52.316;21.166;2022-11-18T13:05:24;12.05;;;6.22;;
25207;SDS011;13153;52.316;21.166;2022-11-18T13:07:55;11.70;;;6.18;;
25207;SDS011;13153;52.316;21.166;2022-11-18T13:10:43;10.20;;;6.00;;
25207;SDS011;13153;52.316;21.166;2022-11-18T13:13:38;12.10;;;6.40;;
25207;SDS011;13153;52.316;21.166;2022-11-18T13:16:19;12.05;;;6.32;;
25207;SDS011;13153;52.316;21.166;2022-11-18T13:19:07;11.80;;;6.40;;
25207;SDS011;13153;52.316;21.166;2022-11-18T13:21:33;12.77;;;7.07;;
25207;SDS011;13153;52.316;21.166;2022-11-18T13:24:19;13.90;;;7.13;;
25207;SDS011;13153;52.316;21.166;2022-11-18T13:26:47;11.98;;;7.03;;
25207;SDS011;13153;52.316;21.166;2022-11-18T13:29:41;12.40;;;6.97;;
25207;SDS011;13153;52.316;21.166;2022-11-18T13:32:21;11.73;;;6.43;;
25207;SDS011;13153;52.316;21.166;2022-11-18T13:34:52;10.90;;;7.15;;
25207;SDS011;13153;52.316;21.166;2022-11-18T13:37:48;12.32;;;7.25;;
25207;SDS011;13153;52.316;21.166;2022-11-18T13:40:24;12.88;;;7.50;;
25207;SDS011;13153;52.316;21.166;2022-11-18T13:42:53;14.85;;;7.32;;
25207;SDS011;13153;52.316;21.166;2022-11-18T13:45:21;16.90;;;8.02;;
25207;SDS011;13153;52.316;21.166;2022-11-18T13:55:58;16.33;;;9.13;;
25207;SDS011;13153;52.316;21.166;2022-11-18T13:58:32;15.85;;;9.90;;
25207;SDS011;13153;52.316;21.166;2022-11-18T14:01:04;18.48;;;9.88;;
25207;SDS011;13153;52.316;21.166;2022-11-18T14:03:53;16.75;;;10.00;;
25207;SDS011;13153;52.316;21.166;2022-11-18T14:12:01;17.70;;;10.98;;
25207;SDS011;13153;52.316;21.166;2022-11-18T14:14:46;19.23;;;12.05;;
25207;SDS011;13153;52.316;21.166;2022-11-18T14:17:19;23.58;;;12.85;;
25207;SDS011;13153;52.316;21.166;2022-11-18T14:19:47;25.02;;;13.30;;
25207;SDS011;13153;52.316;21.166;2022-11-18T14:27:42;23.27;;;14.10;;
25207;SDS011;13153;52.316;21.166;2022-11-18T14:33:18;22.33;;;12.85;;
25207;SDS011;13153;52.316;21.166;2022-11-18T14:35:47;24.17;;;12.90;;
25207;SDS011;13153;52.316;21.166;2022-11-18T14:41:00;22.42;;;13.95;;
25207;SDS011;13153;52.316;21.166;2022-11-18T14:43:29;27.52;;;13.15;;
25207;SDS011;13153;52.316;21.166;2022-11-18T14:45:57;22.27;;;13.27;;
25207;SDS011;13153;52.316;21.166;2022-11-18T14:48:27;23.75;;;14.10;;
25207;SDS011;13153;52.316;21.166;2022-11-18T14:50:56;23.05;;;13.13;;
25207;SDS011;13153;52.316;21.166;2022-11-18T14:53:22;24.67;;;13.60;;
25207;SDS011;13153;52.316;21.166;2022-11-18T14:55:49;18.80;;;12.48;;
25207;SDS011;13153;52.316;21.166;2022-11-18T14:58:17;20.83;;;11.50;;
25207;SDS011;13153;52.316;21.166;2022-11-18T15:00:44;20.52;;;11.68;;
25207;SDS011;13153;52.316;21.166;2022-11-18T15:03:13;18.50;;;11.05;;
25207;SDS011;13153;52.316;21.166;2022-11-18T15:05:39;19.52;;;10.52;;
25207;SDS011;13153;52.316;21.166;2022-11-18T15:08:05;18.42;;;10.73;;
25207;SDS011;13153;52.316;21.166;2022-11-18T15:10:32;18.27;;;10.98;;
25207;SDS011;13153;52.316;21.166;2022-11-18T15:12:58;20.02;;;10.90;;
25207;SDS011;13153;52.316;21.166;2022-11-18T15:15:24;20.17;;;11.57;;
25207;SDS011;13153;52.316;21.166;2022-11-18T15:17:50;20.60;;;11.50;;
25207;SDS011;13153;52.316;21.166;2022-11-18T15:20:18;21.00;;;12.82;;
25207;SDS011;13153;52.316;21.166;2022-11-18T15:22:46;27.35;;;12.73;;
25207;SDS011;13153;52.316;21.166;2022-11-18T15:25:12;25.52;;;13.73;;
25207;SDS011;13153;52.316;21.166;2022-11-18T15:27:38;20.40;;;11.93;;
25207;SDS011;13153;52.316;21.166;2022-11-18T15:30:04;21.73;;;12.02;;
25207;SDS011;13153;52.316;21.166;2022-11-18T15:32:31;24.98;;;12.68;;
25207;SDS011;13153;52.316;21.166;2022-11-18T15:34:56;21.30;;;12.23;;
25207;SDS011;13153;52.316;21.166;2022-11-18T15:37:22;20.88;;;12.05;;
25207;SDS011;13153;52.316;21.166;2022-11-18T15:39:48;20.65;;;11.88;;
25207;SDS011;13153;52.316;21.166;2022-11-18T15:42:15;19.95;;;11.70;;
25207;SDS011;13153;52.316;21.166;2022-11-18T15:44:42;24.63;;;12.68;;
25207;SDS011;13153;52.316;21.166;2022-11-18T15:47:09;21.73;;;12.52;;
25207;SDS011;13153;52.316;21.166;2022-11-18T15:49:35;23.48;;;13.05;;
25207;SDS011;13153;52.316;21.166;2022-11-18T15:52:07;25.08;;;12.68;;
25207;SDS011;13153;52.316;21.166;2022-11-18T15:54:35;26.83;;;14.25;;
25207;SDS011;13153;52.316;21.166;2022-11-18T15:57:01;23.45;;;12.73;;
25207;SDS011;13153;52.316;21.166;2022-11-18T15:59:27;21.73;;;12.45;;
25207;SDS011;13153;52.316;21.166;2022-11-18T16:01:54;23.85;;;13.10;;
25207;SDS011;13153;52.316;21.166;2022-11-18T16:04:20;25.08;;;13.73;;
25207;SDS011;13153;52.316;21.166;2022-11-18T16:06:46;25.98;;;14.40;;
25207;SDS011;13153;52.316;21.166;2022-11-18T16:09:13;24.38;;;14.00;;
25207;SDS011;13153;52.316;21.166;2022-11-18T16:11:41;28.80;;;14.15;;
25207;SDS011;13153;52.316;21.166;2022-11-18T16:14:25;24.08;;;13.45;;
25207;SDS011;13153;52.316;21.166;2022-11-18T16:16:52;29.45;;;13.70;;
25207;SDS011;13153;52.316;21.166;2022-11-18T16:19:21;26.83;;;13.60;;
25207;SDS011;13153;52.316;21.166;2022-11-18T16:21:54;25.98;;;13.93;;
25207;SDS011;13153;52.316;21.166;2022-11-18T16:24:21;29.05;;;15.18;;
25207;SDS011;13153;52.316;21.166;2022-11-18T16:26:51;27.42;;;14.25;;
25207;SDS011;13153;52.316;21.166;2022-11-18T16:29:17;27.27;;;14.55;;
25207;SDS011;13153;52.316;21.166;2022-11-18T16:31:45;24.02;;;13.15;;